Time;durP1;ratioP1;P1;durP2;ratioP2;P2;SDS_P1;SDS_P2;PMS_P1;PMS_P2;Temp;Humidity;BMP_temperature;BMP_pressure;BME280_temperature;BME280_humidity;BME280_pressure;Samples;Min_cycle;Max_cycle;Signal;HPM_P1;HPM_P2
2021/09/12 00:01:52;;;;;;;9.90;5.90;;;;;;;16.41;56.19;96788.17;114243;1201;25159;-87
2021/09/12 00:04:23;;;;;;;8.40;5.70;;;;;;;16.42;56.12;96787.05;114138;1209;26089;-86
2021/09/12 00:06:52;;;;;;;;;;;;;;;16.39;56.12;96786.26;114213;1201;25132;-87
2021/09/12 00:09:23;;;;;;;8.00;5.30;;;;;;;16.37;56.11;96789.12;114215;1201;27363;-87
2021/09/12 00:11:54;;;;;;;8.20;5.60;;;;;;;16.33;56.10;96787.56;114253;1201;24137;-87
2021/09/12 00:14:25;;;;;;;8.10;5.40;;;;;;;16.30;56.19;96786.94;114200;1201;35505;-89
2021/09/12 00:16:56;;;;;;;7.90;5.40;;;;;;;16.31;56.11;96785.84;114265;1201;25529;-88
2021/09/12 00:19:27;;;;;;;9.50;5.60;;;;;;;16.29;56.14;96780.36;114241;1202;23594;-88
2021/09/12 00:21:58;;;;;;;10.10;5.90;;;;;;;16.28;56.27;96784.17;114336;1201;23514;-88
2021/09/12 00:24:28;;;;;;;8.40;5.40;;;;;;;16.22;56.37;96786.75;114238;1203;26712;-88
2021/09/12 00:26:59;;;;;;;10.30;5.50;;;;;;;16.19;56.41;96789.66;114293;1201;26296;-87
2021/09/12 00:29:30;;;;;;;8.30;5.50;;;;;;;16.19;56.54;96787.80;114266;1204;25897;-87
2021/09/12 00:32:01;;;;;;;7.70;5.30;;;;;;;16.15;56.68;96786.45;114180;1201;24879;-88
2021/09/12 00:34:32;;;;;;;9.50;5.50;;;;;;;16.11;56.83;96787.33;114206;1197;26188;-88
2021/09/12 00:37:03;;;;;;;10.80;6.10;;;;;;;16.06;56.90;96789.54;114221;1201;24816;-87
2021/09/12 00:39:33;;;;;;;11.00;5.70;;;;;;;16.00;57.00;96791.23;114203;1201;25384;-87
2021/09/12 00:42:05;;;;;;;10.00;5.70;;;;;;;15.94;57.26;96793.33;114180;1201;24030;-87
2021/09/12 00:44:36;;;;;;;10.70;6.30;;;;;;;15.89;57.29;96789.27;114150;1201;24825;-87
2021/09/12 00:47:12;;;;;;;9.40;6.10;;;;;;;15.87;57.57;96791.75;114181;1193;26560;-88
2021/09/12 00:49:44;;;;;;;10.60;5.90;;;;;;;15.82;57.60;96791.14;114151;1203;28199;-87
2021/09/12 00:52:16;;;;;;;8.60;5.60;;;;;;;15.77;57.79;96789.38;114136;1203;26647;-88
2021/09/12 00:54:49;;;;;;;9.20;6.30;;;;;;;15.75;57.75;96786.20;114172;1201;25537;-87
2021/09/12 00:57:23;;;;;;;11.20;5.90;;;;;;;15.78;57.82;96783.23;114173;1202;24317;-88
2021/09/12 00:59:55;;;;;;;11.90;5.90;;;;;;;15.81;57.81;96786.08;114154;1201;27419;-88
2021/09/12 01:02:26;;;;;;;9.10;5.70;;;;;;;15.87;57.74;96783.73;114187;1201;25225;-87
2021/09/12 01:04:57;;;;;;;8.20;5.90;;;;;;;15.89;57.67;96780.71;114296;1197;26290;-87
2021/09/12 01:07:28;;;;;;;12.00;5.80;;;;;;;15.90;57.56;96778.12;114249;1202;25952;-87
2021/09/12 01:09:58;;;;;;;9.60;5.50;;;;;;;15.92;57.56;96776.37;114220;1201;26970;-88
2021/09/12 01:12:30;;;;;;;9.20;5.50;;;;;;;15.95;57.55;96772.61;114279;1201;24486;-88
2021/09/12 01:15:01;;;;;;;11.40;6.20;;;;;;;15.98;57.55;96772.70;114102;1202;70975;-83
2021/09/12 01:17:33;;;;;;;9.00;5.70;;;;;;;16.01;57.43;96770.29;114006;1201;76509;-87
2021/09/12 01:20:06;;;;;;;9.70;6.30;;;;;;;16.03;57.41;96772.75;114103;1193;59974;-88
2021/09/12 01:22:37;;;;;;;10.30;5.40;;;;;;;16.01;57.48;96769.91;114073;1201;70578;-88
2021/09/12 01:25:09;;;;;;;8.10;5.30;;;;;;;15.98;57.60;96769.37;114103;1201;60229;-87
2021/09/12 01:27:40;;;;;;;9.80;6.20;;;;;;;15.96;57.62;96774.59;114126;1201;59166;-88
2021/09/12 01:30:13;;;;;;;7.60;5.30;;;;;;;15.92;57.69;96775.67;114134;1201;58380;-88
2021/09/12 01:32:44;;;;;;;8.50;5.60;;;;;;;15.89;57.64;96777.44;114150;1202;24860;-88
2021/09/12 01:35:15;;;;;;;9.60;5.60;;;;;;;15.88;57.68;96774.60;114122;1201;27282;-89
2021/09/12 01:37:46;;;;;;;9.00;5.40;;;;;;;15.86;57.65;96775.55;114161;1201;26114;-89
2021/09/12 01:40:17;;;;;;;10.30;5.80;;;;;;;15.81;57.78;96775.69;114203;1201;27001;-88
2021/09/12 01:42:47;;;;;;;7.10;5.50;;;;;;;15.77;57.88;96771.90;114151;1201;24931;-88
2021/09/12 01:45:19;;;;;;;9.10;5.00;;;;;;;15.71;57.89;96771.35;114190;1201;24572;-88
2021/09/12 01:47:50;;;;;;;7.00;5.10;;;;;;;15.64;58.18;96770.41;114169;1208;25186;-88
2021/09/12 01:50:21;;;;;;;6.80;5.20;;;;;;;15.59;58.16;96775.45;114116;1202;34725;-88
2021/09/12 01:52:52;;;;;;;8.70;5.40;;;;;;;15.55;58.30;96770.35;114141;1201;27728;-89
2021/09/12 01:55:23;;;;;;;9.90;5.80;;;;;;;15.54;58.37;96771.61;114216;1201;25144;-89
2021/09/12 01:57:54;;;;;;;10.10;5.80;;;;;;;15.52;58.50;96772.45;114147;1201;27594;-89
2021/09/12 02:00:25;;;;;;;8.10;5.90;;;;;;;15.52;58.83;96771.83;114175;1202;24954;-88
2021/09/12 02:02:57;;;;;;;7.70;5.50;;;;;;;15.45;58.89;96772.84;114245;1201;24386;-88
2021/09/12 02:05:29;;;;;;;9.50;5.80;;;;;;;15.40;59.17;96773.07;114262;1201;26552;-88
2021/09/12 02:07:59;;;;;;;9.60;5.80;;;;;;;15.37;59.20;96775.91;114259;1202;26285;-88
2021/09/12 02:10:30;;;;;;;8.60;5.70;;;;;;;15.35;59.31;96771.00;114248;1202;25526;-88
2021/09/12 02:13:01;;;;;;;8.20;5.20;;;;;;;15.34;59.44;96772.39;114256;1201;26029;-87
2021/09/12 02:15:32;;;;;;;10.40;6.40;;;;;;;15.33;59.55;96771.09;114232;1208;37461;-86
2021/09/12 02:18:03;;;;;;;9.80;5.20;;;;;;;15.32;59.48;96773.16;114174;1201;25150;-87
2021/09/12 02:20:34;;;;;;;8.00;4.90;;;;;;;15.31;59.63;96779.79;114238;1201;24837;-88
2021/09/12 02:23:05;;;;;;;8.90;6.00;;;;;;;15.31;59.57;96773.49;114180;1203;26313;-88
2021/09/12 02:25:35;;;;;;;9.40;5.50;;;;;;;15.35;59.37;96773.19;114289;1201;25048;-88
2021/09/12 02:28:07;;;;;;;7.80;5.50;;;;;;;15.42;59.25;96770.34;114242;1201;24908;-88
2021/09/12 02:30:38;;;;;;;8.90;4.90;;;;;;;15.49;59.12;96772.42;114212;1201;28007;-87
2021/09/12 02:33:14;;;;;;;7.70;5.30;;;;;;;15.53;59.03;96768.34;114229;1202;24010;-88
2021/09/12 02:35:49;;;;;;;8.50;5.20;;;;;;;15.57;59.02;96767.51;114270;1208;26618;-88
2021/09/12 02:38:20;;;;;;;8.50;5.60;;;;;;;15.61;58.97;96764.34;114199;1201;27236;-87
2021/09/12 02:40:51;;;;;;;8.70;5.60;;;;;;;15.59;58.99;96760.95;114212;1201;26405;-86
2021/09/12 02:43:22;;;;;;;7.80;5.30;;;;;;;15.54;59.24;96765.20;114267;1201;24074;-87
2021/09/12 02:45:53;;;;;;;9.80;5.40;;;;;;;15.48;59.23;96762.24;114234;1202;24186;-87
2021/09/12 02:48:24;;;;;;;9.20;5.50;;;;;;;15.40;59.48;96769.42;114193;1201;25335;-88
2021/09/12 02:50:56;;;;;;;10.50;5.40;;;;;;;15.35;59.70;96777.19;114196;1201;28481;-87
2021/09/12 02:53:27;;;;;;;7.90;5.10;;;;;;;15.33;59.69;96776.30;114255;1201;24096;-88
2021/09/12 02:55:59;;;;;;;10.30;5.30;;;;;;;15.33;59.70;96770.12;114219;1201;25957;-88
2021/09/12 02:58:30;;;;;;;9.50;5.00;;;;;;;15.33;59.70;96777.96;114224;1201;24967;-88
2021/09/12 03:01:01;;;;;;;7.80;5.30;;;;;;;15.31;59.90;96776.58;114193;1203;25904;-87
2021/09/12 03:03:32;;;;;;;9.20;5.30;;;;;;;15.28;59.98;96771.82;114140;1201;28423;-89
2021/09/12 03:06:03;;;;;;;9.60;5.50;;;;;;;15.28;59.98;96774.27;114169;1201;25381;-87
2021/09/12 03:08:34;;;;;;;7.10;4.80;;;;;;;15.32;59.76;96773.94;114163;1201;25704;-88
2021/09/12 03:11:05;;;;;;;8.30;5.20;;;;;;;15.36;59.74;96773.92;114200;1201;26996;-87
2021/09/12 03:13:37;;;;;;;8.40;5.60;;;;;;;15.39;59.68;96771.34;114220;1201;25042;-88
2021/09/12 03:16:08;;;;;;;8.10;5.70;;;;;;;15.40;59.63;96772.60;114159;1208;25964;-87
2021/09/12 03:18:40;;;;;;;7.60;4.80;;;;;;;15.39;59.70;96774.86;114163;1201;26659;-89
2021/09/12 03:21:11;;;;;;;9.80;5.70;;;;;;;15.39;59.78;96766.63;114174;1204;26349;-88
2021/09/12 03:23:42;;;;;;;12.00;5.20;;;;;;;15.41;59.83;96770.23;114115;1201;26337;-88
2021/09/12 03:26:13;;;;;;;8.20;5.20;;;;;;;15.42;59.65;96782.09;114199;1201;27589;-86
2021/09/12 03:28:45;;;;;;;12.20;5.40;;;;;;;15.42;59.58;96778.42;114249;1201;27775;-87
2021/09/12 03:31:16;;;;;;;7.90;4.50;;;;;;;15.43;59.40;96783.02;114186;1202;27047;-87
2021/09/12 03:33:47;;;;;;;7.50;4.90;;;;;;;15.46;59.41;96776.11;114129;1202;27286;-88
2021/09/12 03:36:18;;;;;;;6.00;4.70;;;;;;;15.50;59.36;96772.20;114187;1201;25674;-88
2021/09/12 03:38:49;;;;;;;8.10;4.70;;;;;;;15.50;59.38;96773.17;114212;1202;25723;-86
2021/09/12 03:41:20;;;;;;;7.80;5.30;;;;;;;15.45;59.57;96767.42;114164;1203;27068;-88
2021/09/12 03:43:51;;;;;;;8.10;4.80;;;;;;;15.41;59.62;96775.23;114152;1204;26074;-88
2021/09/12 03:46:21;;;;;;;8.60;4.40;;;;;;;15.39;59.72;96782.61;114188;1201;26221;-88
2021/09/12 03:48:52;;;;;;;7.80;4.80;;;;;;;15.40;59.68;96781.30;114250;1201;24552;-88
2021/09/12 03:51:23;;;;;;;7.40;4.90;;;;;;;15.41;59.67;96781.96;114186;1201;26923;-88
2021/09/12 03:53:54;;;;;;;9.10;5.30;;;;;;;15.41;59.61;96783.23;114203;1201;27222;-87
2021/09/12 03:56:25;;;;;;;8.30;4.90;;;;;;;15.40;59.71;96781.55;114282;1201;26425;-87
2021/09/12 03:58:56;;;;;;;9.60;4.80;;;;;;;15.37;59.70;96777.52;114254;1201;25068;-87
2021/09/12 04:01:29;;;;;;;11.50;4.90;;;;;;;15.34;59.74;96782.45;114292;1202;27132;-87
2021/09/12 04:04:00;;;;;;;7.50;4.90;;;;;;;15.32;59.80;96783.71;114324;1201;27472;-87
2021/09/12 04:06:31;;;;;;;8.60;5.30;;;;;;;15.30;59.80;96783.02;114264;1202;23751;-87
2021/09/12 04:09:02;;;;;;;7.80;4.70;;;;;;;15.27;59.80;96781.27;114170;1200;27005;-88
2021/09/12 04:11:32;;;;;;;9.30;5.20;;;;;;;15.27;59.84;96781.55;114169;1202;26133;-86
2021/09/12 04:14:03;;;;;;;8.10;5.30;;;;;;;15.24;59.89;96779.98;114225;1205;27293;-88
2021/09/12 04:16:34;;;;;;;9.10;5.40;;;;;;;15.22;59.94;96780.84;114218;1201;24130;-86
2021/09/12 04:19:05;;;;;;;8.90;5.10;;;;;;;15.19;60.07;96780.67;114220;1200;28595;-87
2021/09/12 04:21:36;;;;;;;8.10;4.60;;;;;;;15.17;60.17;96782.64;114217;1200;26982;-87
2021/09/12 04:24:07;;;;;;;8.70;4.80;;;;;;;15.19;60.15;96782.27;114243;1200;24273;-87
2021/09/12 04:26:38;;;;;;;8.30;5.40;;;;;;;15.20;60.17;96784.65;114157;1197;26549;-87
2021/09/12 04:29:09;;;;;;;9.10;5.00;;;;;;;15.21;60.10;96782.34;114195;1203;27308;-87
2021/09/12 04:31:40;;;;;;;7.50;4.70;;;;;;;15.26;60.09;96791.10;114231;1202;28144;-87
2021/09/12 04:34:11;;;;;;;7.60;4.80;;;;;;;15.33;60.09;96793.60;114243;1201;30127;-86
2021/09/12 04:36:42;;;;;;;7.10;4.60;;;;;;;15.40;59.89;96795.73;114249;1202;27016;-87
2021/09/12 04:39:13;;;;;;;7.30;4.60;;;;;;;15.50;59.72;96796.88;114224;1202;26827;-88
2021/09/12 04:41:45;;;;;;;8.80;4.90;;;;;;;15.54;59.65;96793.34;114225;1202;25028;-88
2021/09/12 04:44:16;;;;;;;6.20;4.60;;;;;;;15.53;59.67;96796.98;114130;1204;24813;-87
2021/09/12 04:46:47;;;;;;;8.10;5.20;;;;;;;15.55;59.74;96797.45;114110;1202;24122;-87
2021/09/12 04:49:17;;;;;;;8.70;5.00;;;;;;;15.60;59.74;96801.18;114181;1201;25041;-87
2021/09/12 04:51:48;;;;;;;10.10;4.70;;;;;;;15.70;59.49;96804.74;114147;1202;30459;-87
2021/09/12 04:54:19;;;;;;;8.40;5.30;;;;;;;15.82;59.50;96800.75;114141;1201;28562;-87
2021/09/12 04:56:50;;;;;;;6.70;4.50;;;;;;;16.15;59.27;96800.14;114123;1201;26782;-87
2021/09/12 04:59:21;;;;;;;11.50;5.10;;;;;;;16.62;58.41;96799.33;114135;1209;24560;-88
2021/09/12 05:01:52;;;;;;;7.40;4.60;;;;;;;16.99;57.70;96797.88;114138;1201;26241;-88
2021/09/12 05:04:23;;;;;;;8.10;4.60;;;;;;;17.29;57.00;96793.84;114128;1209;26147;-88
2021/09/12 05:06:54;;;;;;;7.90;4.50;;;;;;;17.63;56.44;96791.29;114158;1204;25192;-88
2021/09/12 05:09:24;;;;;;;6.70;4.40;;;;;;;17.98;55.52;96792.52;114137;1209;29388;-88
2021/09/12 05:11:58;;;;;;;6.50;4.20;;;;;;;18.30;54.89;96791.52;114145;1202;27192;-89
2021/09/12 05:14:29;;;;;;;7.90;4.80;;;;;;;18.57;54.31;96792.20;114181;1201;26032;-88
2021/09/12 05:17:00;;;;;;;8.10;4.50;;;;;;;18.80;53.75;96790.41;114259;1202;25555;-88
2021/09/12 05:19:31;;;;;;;7.60;4.70;;;;;;;18.98;53.05;96793.70;114290;1206;24187;-88
2021/09/12 05:22:02;;;;;;;6.70;4.20;;;;;;;19.27;52.65;96793.12;114259;1202;24065;-88
2021/09/12 05:24:32;;;;;;;7.20;4.10;;;;;;;19.51;51.66;96795.46;114184;1201;28330;-89
2021/09/12 05:27:03;;;;;;;11.70;4.20;;;;;;;19.68;51.30;96795.96;114272;1201;24353;-88
2021/09/12 05:29:34;;;;;;;5.70;3.90;;;;;;;19.94;50.55;96792.42;114239;1202;36544;-86
2021/09/12 05:32:07;;;;;;;6.10;4.30;;;;;;;20.09;49.61;96791.66;114262;1197;29409;-87
2021/09/12 05:34:37;;;;;;;6.50;4.10;;;;;;;20.15;49.33;96789.71;114281;1201;25727;-87
2021/09/12 05:37:09;;;;;;;8.10;4.00;;;;;;;20.42;48.81;96789.07;114267;1202;28544;-87
2021/09/12 05:39:40;;;;;;;7.30;4.00;;;;;;;20.63;49.06;96788.33;114193;1201;28166;-87
2021/09/12 05:42:11;;;;;;;4.60;3.70;;;;;;;21.27;48.69;96790.90;114228;1208;25129;-87
2021/09/12 05:44:42;;;;;;;7.30;4.30;;;;;;;21.72;47.23;96786.48;114294;1202;25182;-88
2021/09/12 05:47:13;;;;;;;7.00;4.30;;;;;;;21.94;47.03;96788.14;114253;1202;24067;-86
2021/09/12 05:49:44;;;;;;;5.70;3.90;;;;;;;22.57;46.17;96787.23;114289;1202;25765;-85
2021/09/12 05:52:15;;;;;;;6.40;4.30;;;;;;;23.09;45.22;96786.77;114140;1201;30386;-85
2021/09/12 05:54:45;;;;;;;6.60;4.00;;;;;;;23.51;44.73;96788.09;114239;1202;24654;-87
2021/09/12 05:57:16;;;;;;;5.50;4.00;;;;;;;23.92;43.70;96787.06;114211;1206;23505;-85
2021/09/12 05:59:47;;;;;;;9.70;4.20;;;;;;;24.09;42.43;96786.36;114174;1205;46172;-86
2021/09/12 06:02:18;;;;;;;5.10;3.50;;;;;;;24.24;42.60;96787.48;114182;1206;44785;-86
2021/09/12 06:04:49;;;;;;;7.40;4.20;;;;;;;24.38;41.63;96787.63;114194;1202;50793;-85
2021/09/12 06:07:20;;;;;;;5.10;4.00;;;;;;;24.39;41.48;96787.12;114183;1207;44141;-87
2021/09/12 06:09:51;;;;;;;5.70;3.90;;;;;;;24.59;41.25;96789.11;114182;1202;52996;-85
2021/09/12 06:12:21;;;;;;;5.80;4.20;;;;;;;24.77;41.24;96786.98;114168;1202;55367;-86
2021/09/12 06:14:52;;;;;;;6.10;4.40;;;;;;;24.96;40.40;96788.40;114211;1201;24540;-86
2021/09/12 06:17:24;;;;;;;5.00;3.90;;;;;;;25.17;40.34;96791.27;114150;1206;25009;-87
2021/09/12 06:19:54;;;;;;;6.40;4.10;;;;;;;25.35;39.92;96795.67;114161;1201;26908;-86
2021/09/12 06:22:25;;;;;;;6.00;4.00;;;;;;;25.50;39.71;96796.08;114203;1202;24706;-88
2021/09/12 06:24:57;;;;;;;6.90;3.80;;;;;;;25.90;39.24;96798.63;114224;1202;33993;-87
2021/09/12 06:27:28;;;;;;;6.50;3.70;;;;;;;26.22;38.15;96794.19;114208;1202;26762;-86
2021/09/12 06:30:00;;;;;;;5.10;3.70;;;;;;;26.38;37.76;96797.68;114261;1205;24219;-85
2021/09/12 06:32:30;;;;;;;4.20;3.50;;;;;;;26.57;37.60;96798.52;114315;1201;25160;-85
2021/09/12 06:35:02;;;;;;;4.70;3.70;;;;;;;27.06;37.55;96793.09;114360;1196;25252;-83
2021/09/12 06:37:33;;;;;;;6.10;3.70;;;;;;;27.62;36.60;96793.11;114394;1201;25030;-84
2021/09/12 06:40:07;;;;;;;5.90;3.90;;;;;;;27.95;35.97;96791.17;114435;1205;26082;-86
2021/09/12 06:42:40;;;;;;;5.70;3.30;;;;;;;28.33;35.99;96794.27;114321;1201;25691;-86
2021/09/12 06:45:13;;;;;;;5.50;3.40;;;;;;;28.88;34.98;96793.14;114281;1202;24083;-86
2021/09/12 06:47:44;;;;;;;4.80;3.50;;;;;;;29.05;34.72;96793.58;114235;1202;82852;-86
2021/09/12 06:50:15;;;;;;;7.50;3.80;;;;;;;29.37;34.39;96790.66;114208;1206;24220;-88
2021/09/12 06:52:48;;;;;;;5.00;3.60;;;;;;;29.87;34.11;96787.52;114247;1201;38855;-86
2021/09/12 06:55:20;;;;;;;5.30;3.40;;;;;;;30.23;33.97;96792.86;114288;1203;26761;-87
2021/09/12 06:57:51;;;;;;;6.50;3.90;;;;;;;30.75;33.61;96794.86;114263;1205;49373;-87
2021/09/12 07:00:23;;;;;;;6.30;3.60;;;;;;;31.17;32.53;96797.17;114287;1202;40030;-86
2021/09/12 07:02:53;;;;;;;4.70;3.40;;;;;;;31.26;32.40;96798.88;114304;1201;39902;-86
2021/09/12 07:05:25;;;;;;;5.80;3.60;;;;;;;31.55;31.67;96797.98;114182;1197;24769;-87
2021/09/12 07:07:59;;;;;;;6.80;4.10;;;;;;;31.46;31.79;96796.85;114359;1201;24366;-87
2021/09/12 07:10:31;;;;;;;5.20;3.70;;;;;;;31.83;32.27;96795.03;114380;1202;25776;-89
2021/09/12 07:13:03;;;;;;;6.50;3.80;;;;;;;32.26;31.62;96795.05;114638;1197;33724;-86
2021/09/12 07:15:37;;;;;;;5.30;3.90;;;;;;;32.38;31.31;96796.60;114656;1208;24457;-86
2021/09/12 07:18:09;;;;;;;5.40;3.80;;;;;;;32.40;31.13;96798.20;114491;1206;24789;-86
2021/09/12 07:20:40;;;;;;;6.30;3.90;;;;;;;32.56;31.03;96800.61;114488;1201;23612;-85
2021/09/12 07:23:11;;;;;;;7.80;4.30;;;;;;;32.96;30.94;96803.13;114673;1208;22500;-86
2021/09/12 07:25:42;;;;;;;8.10;3.70;;;;;;;33.25;30.21;96801.98;114690;1206;23404;-86
2021/09/12 07:28:14;;;;;;;6.30;3.80;;;;;;;33.20;30.12;96806.77;114521;1198;23760;-85
2021/09/12 07:30:45;;;;;;;5.60;3.90;;;;;;;33.08;30.03;96804.89;114301;1202;28066;-86
2021/09/12 07:33:16;;;;;;;5.50;3.80;;;;;;;32.91;30.45;96808.17;114273;1206;23709;-85
2021/09/12 07:35:47;;;;;;;6.00;4.10;;;;;;;33.29;30.31;96808.95;114388;1201;25036;-86
2021/09/12 07:38:18;;;;;;;6.70;4.20;;;;;;;33.30;29.90;96811.70;114274;1201;32300;-85
2021/09/12 07:40:49;;;;;;;5.50;3.90;;;;;;;32.94;29.35;96815.33;114278;1201;24753;-87
2021/09/12 07:43:21;;;;;;;6.50;4.00;;;;;;;32.49;30.22;96817.42;114361;1202;28893;-90
2021/09/12 07:45:52;;;;;;;5.90;4.00;;;;;;;32.53;30.03;96815.01;114447;1202;26577;-90
2021/09/12 07:48:23;;;;;;;6.60;4.00;;;;;;;32.43;30.32;96817.13;114649;1201;26271;-90
2021/09/12 07:50:54;;;;;;;5.40;4.10;;;;;;;32.50;30.55;96818.84;114509;1202;27891;-89
2021/09/12 07:53:25;;;;;;;5.60;3.60;;;;;;;32.58;30.42;96820.51;114448;1206;41161;-90
2021/09/12 07:55:56;;;;;;;5.00;3.90;;;;;;;32.86;30.81;96821.91;114458;1206;31521;-90
2021/09/12 07:58:27;;;;;;;5.80;4.20;;;;;;;32.83;30.17;96820.02;114283;1201;27484;-89
2021/09/12 08:00:58;;;;;;;6.00;4.10;;;;;;;32.15;30.22;96819.50;114300;1202;29280;-90
2021/09/12 08:03:30;;;;;;;7.50;4.00;;;;;;;31.44;31.03;96824.58;114285;1202;31375;-89
2021/09/12 08:06:01;;;;;;;7.50;4.60;;;;;;;30.77;31.71;96821.57;114247;1201;25060;-89
2021/09/12 08:08:32;;;;;;;7.90;4.40;;;;;;;30.25;32.70;96822.14;114248;1208;26847;-90
2021/09/12 08:11:03;;;;;;;7.40;4.70;;;;;;;29.65;33.18;96818.33;114237;1202;25616;-90
2021/09/12 08:13:34;;;;;;;5.80;4.20;;;;;;;29.20;34.26;96821.39;114217;1202;28336;-91
2021/09/12 08:16:07;;;;;;;6.20;4.20;;;;;;;29.07;34.52;96823.67;114228;1203;28624;-90
2021/09/12 08:18:38;;;;;;;5.70;3.90;;;;;;;28.92;35.46;96822.94;114092;1201;29991;-90
2021/09/12 08:21:10;;;;;;;6.00;4.50;;;;;;;28.74;35.64;96818.88;114112;1201;26673;-89
2021/09/12 08:23:41;;;;;;;6.10;4.20;;;;;;;28.49;36.26;96822.86;114082;1203;35166;-89
2021/09/12 08:26:12;;;;;;;6.30;4.60;;;;;;;28.22;36.65;96821.35;114119;1201;30404;-90
2021/09/12 08:28:44;;;;;;;6.30;4.70;;;;;;;28.09;37.26;96820.48;114170;1201;28604;-89
2021/09/12 08:31:14;;;;;;;6.70;4.60;;;;;;;27.93;38.28;96818.81;114063;1201;30119;-89
2021/09/12 08:33:46;;;;;;;5.60;4.50;;;;;;;27.99;38.47;96815.86;114123;1205;29776;-89
2021/09/12 08:36:16;;;;;;;6.30;5.00;;;;;;;27.90;39.38;96815.14;114058;1201;28349;-89
2021/09/12 08:38:48;;;;;;;7.70;5.90;;;;;;;27.74;39.48;96812.54;114057;1204;33020;-91
2021/09/12 08:41:19;;;;;;;8.80;5.50;;;;;;;27.33;39.82;96815.80;114059;1203;28125;-90
2021/09/12 08:43:51;;;;;;;7.70;5.30;;;;;;;26.88;40.91;96818.63;114154;1203;26574;-90
2021/09/12 08:46:22;;;;;;;6.60;5.20;;;;;;;26.90;41.23;96818.73;114193;1201;28355;-89
2021/09/12 08:48:53;;;;;;;7.70;5.60;;;;;;;26.82;41.53;96817.81;114135;1206;32806;-90
2021/09/12 08:51:24;;;;;;;9.50;6.20;;;;;;;26.59;42.15;96818.74;114185;1201;27107;-89
2021/09/12 08:53:55;;;;;;;9.30;6.10;;;;;;;26.38;42.34;96813.75;114180;1202;27316;-89
2021/09/12 08:56:26;;;;;;;8.40;6.10;;;;;;;26.16;42.96;96817.89;114220;1206;28169;-89
2021/09/12 08:58:58;;;;;;;7.10;5.50;;;;;;;26.00;43.61;96817.27;114157;1202;29434;-89
2021/09/12 09:01:37;;;;;;;9.00;5.80;;;;;;;26.01;43.44;96817.14;114128;1195;26713;-89
2021/09/12 09:04:09;;;;;;;8.70;6.00;;;;;;;25.76;43.94;96812.99;114102;1205;25884;-90
2021/09/12 09:06:41;;;;;;;7.40;5.60;;;;;;;25.61;44.42;96811.64;114161;1201;26606;-90
2021/09/12 09:09:12;;;;;;;8.60;5.70;;;;;;;25.60;44.72;96810.70;114087;1206;36537;-90
2021/09/12 09:11:43;;;;;;;8.90;5.20;;;;;;;25.58;44.70;96808.33;114073;1201;30581;-90
2021/09/12 09:14:26;;;;;;;8.30;5.40;;;;;;;25.63;44.65;96809.27;114087;1201;32587;-89
2021/09/12 09:16:57;;;;;;;7.90;5.30;;;;;;;25.53;44.80;96806.52;114204;1202;28545;-90
2021/09/12 09:19:28;;;;;;;7.20;4.90;;;;;;;25.60;45.05;96807.83;114260;1201;28830;-90
2021/09/12 09:21:59;;;;;;;7.60;4.90;;;;;;;25.58;44.98;96813.08;114218;1202;30850;-89
2021/09/12 09:24:30;;;;;;;6.70;5.20;;;;;;;25.57;44.78;96813.45;114209;1201;29021;-89
2021/09/12 09:27:03;;;;;;;7.30;4.90;;;;;;;25.50;44.61;96812.61;114212;1202;29023;-90
2021/09/12 09:29:35;;;;;;;7.10;5.20;;;;;;;25.43;44.65;96809.34;114205;1202;26566;-89
2021/09/12 09:32:09;;;;;;;6.00;4.60;;;;;;;25.24;45.42;96810.82;114251;1205;26888;-89
2021/09/12 09:34:43;;;;;;;6.20;4.50;;;;;;;25.00;45.26;96810.02;114274;1196;28312;-90
2021/09/12 09:37:17;;;;;;;8.90;4.90;;;;;;;24.78;45.56;96808.84;114238;1201;25716;-90
2021/09/12 09:39:51;;;;;;;6.90;5.10;;;;;;;24.66;45.79;96807.67;114236;1202;28352;-89
2021/09/12 09:42:46;;;;;;;7.90;5.10;;;;;;;24.71;46.15;96809.42;114304;1202;31501;-89
2021/09/12 09:45:19;;;;;;;7.80;5.10;;;;;;;24.57;45.86;96807.98;114149;1205;27606;-88
2021/09/12 09:47:53;;;;;;;6.70;5.20;;;;;;;24.53;46.11;96802.59;114293;1202;27138;-89
2021/09/12 09:50:26;;;;;;;10.80;4.60;;;;;;;24.64;46.18;96800.64;114344;1202;26983;-89
2021/09/12 09:52:58;;;;;;;5.60;4.40;;;;;;;24.79;46.48;96796.00;114246;1202;29250;-90
2021/09/12 09:55:30;;;;;;;7.30;5.10;;;;;;;24.76;46.63;96792.77;114228;1206;28299;-89
2021/09/12 09:58:01;;;;;;;7.70;4.80;;;;;;;24.72;46.80;96790.09;114209;1190;28618;-89
2021/09/12 10:00:34;;;;;;;8.00;5.00;;;;;;;24.83;46.42;96786.45;114236;1205;25712;-89
2021/09/12 10:03:06;;;;;;;5.60;4.60;;;;;;;24.96;46.24;96786.85;114267;1201;44606;-88
2021/09/12 10:05:37;;;;;;;5.80;4.80;;;;;;;25.03;46.52;96787.44;114304;1203;29930;-89
2021/09/12 10:08:09;;;;;;;9.10;4.50;;;;;;;25.15;46.68;96787.83;114238;1201;27177;-88
2021/09/12 10:10:41;;;;;;;5.70;5.00;;;;;;;25.25;47.11;96785.39;114270;1202;27851;-88
2021/09/12 10:13:14;;;;;;;8.00;5.70;;;;;;;25.22;46.06;96782.25;114254;1202;30050;-89
2021/09/12 10:15:49;;;;;;;9.30;5.90;;;;;;;25.13;45.81;96781.98;114246;1206;25620;-89
2021/09/12 10:18:26;;;;;;;9.00;5.50;;;;;;;24.99;45.88;96785.11;114225;1201;25961;-89
2021/09/12 10:21:18;;;;;;;8.70;5.70;;;;;;;25.02;45.58;96780.20;114263;1202;30921;-89
2021/09/12 10:23:58;;;;;;;8.30;5.00;;;;;;;25.13;46.26;96779.66;114252;1202;57313;-93
2021/09/12 10:26:35;;;;;;;7.20;4.80;;;;;;;25.33;46.70;96781.54;114293;1203;40003;-94
2021/09/12 10:29:26;;;;;;;9.20;5.50;;;;;;;25.33;45.62;96776.58;114196;1202;29133;-94
2021/09/12 10:31:57;;;;;;;8.30;5.50;;;;;;;25.15;45.77;96777.83;114160;1201;31505;-92
2021/09/12 10:34:28;;;;;;;8.50;5.50;;;;;;;25.19;46.16;96773.77;114291;1202;54527;-92
2021/09/12 10:37:34;;;;;;;7.10;5.10;;;;;;;25.24;46.14;96772.90;114234;1204;27949;-92
2021/09/12 10:43:06;;;;;;;7.80;5.10;;;;;;;25.44;45.89;96770.34;114578;1198;140923;-96
2021/09/12 10:45:48;;;;;;;8.20;5.10;;;;;;;25.39;46.21;96766.57;114957;1202;68579;-96
2021/09/12 10:48:37;;;;;;;6.30;4.80;;;;;;;25.35;45.75;96766.52;114737;1203;161086;-96
2021/09/12 10:54:22;;;;;;;7.50;4.80;;;;;;;25.06;46.93;96765.55;114268;1198;164705;-95
2021/09/12 10:57:07;;;;;;;8.40;5.10;;;;;;;25.13;46.73;96766.48;114374;1206;50833;-89
2021/09/12 10:59:38;;;;;;;6.80;5.00;;;;;;;25.00;46.70;96762.65;114060;1202;28646;-90
2021/09/12 11:02:16;;;;;;;6.50;4.20;;;;;;;24.90;46.88;96764.21;114048;1202;32846;-90
2021/09/12 11:04:47;;;;;;;5.90;4.50;;;;;;;24.94;46.93;96761.65;114046;1202;36436;-92
2021/09/12 11:07:18;;;;;;;6.30;4.80;;;;;;;24.98;46.71;96762.17;114066;1202;33771;-93
2021/09/12 11:09:50;;;;;;;7.00;5.40;;;;;;;25.01;46.54;96760.05;114127;1206;31315;-94
2021/09/12 11:12:30;;;;;;;6.00;4.30;;;;;;;25.03;46.87;96754.11;114036;1204;71970;-95
2021/09/12 11:15:01;;;;;;;8.20;5.10;;;;;;;25.05;46.97;96749.80;114166;1198;55935;-95
2021/09/12 11:17:52;;;;;;;6.70;4.70;;;;;;;25.05;47.49;96749.10;114012;1209;27212;-90
2021/09/12 11:20:38;;;;;;;7.60;4.90;;;;;;;25.00;47.16;96747.55;114055;1204;27345;-90
2021/09/12 11:23:09;;;;;;;6.20;5.00;;;;;;;24.91;48.03;96749.35;113966;1203;28760;-90
2021/09/12 11:25:40;;;;;;;7.60;5.00;;;;;;;24.82;48.13;96749.86;113922;1202;53196;-91
2021/09/12 11:28:12;;;;;;;8.30;5.50;;;;;;;24.67;48.56;96753.75;113910;1208;64597;-90
2021/09/12 11:30:50;;;;;;;6.60;4.80;;;;;;;24.45;48.91;96745.39;114024;1202;48838;-93
2021/09/12 11:33:22;;;;;;;7.30;5.30;;;;;;;24.20;49.11;96743.36;113921;1205;65017;-92
2021/09/12 11:36:04;;;;;;;7.70;5.00;;;;;;;24.09;49.76;96742.27;114104;1202;32021;-91
2021/09/12 11:38:36;;;;;;;7.40;4.80;;;;;;;24.15;49.66;96740.10;114115;1203;33690;-93
2021/09/12 11:44:16;;;;;;;6.60;5.10;;;;;;;24.20;50.56;96732.91;114315;1201;36698;-91
2021/09/12 11:46:50;;;;;;;6.20;4.70;;;;;;;24.35;50.77;96731.62;114112;1201;54326;-92
2021/09/12 11:49:21;;;;;;;7.50;4.90;;;;;;;24.37;50.80;96727.46;113982;1205;26936;-92
2021/09/12 11:51:52;;;;;;;7.90;5.20;;;;;;;24.37;50.64;96725.00;114116;1205;25110;-91
2021/09/12 11:54:27;;;;;;;6.60;5.30;;;;;;;24.44;50.41;96719.50;114131;1209;29764;-90
2021/09/12 11:57:01;;;;;;;7.60;4.40;;;;;;;24.50;50.29;96717.34;113945;1202;34214;-94